sensor_id;sensor_type;location;lat;lon;timestamp;P1;durP1;ratioP1;P2;durP2;ratioP2
10711;SDS011;5407;51.234;6.804;2024-03-23T00:55:33;13.20;;;4.40;;
10711;SDS011;5407;51.234;6.804;2024-03-23T01:04:41;14.90;;;4.57;;
10711;SDS011;5407;51.234;6.804;2024-03-23T01:07:12;15.47;;;5.00;;
10711;SDS011;5407;51.234;6.804;2024-03-23T01:09:44;15.67;;;4.50;;
10711;SDS011;5407;51.234;6.804;2024-03-23T01:12:39;16.20;;;4.50;;
10711;SDS011;5407;51.234;6.804;2024-03-23T01:19:14;13.73;;;4.13;;
10711;SDS011;5407;51.234;6.804;2024-03-23T01:21:43;17.07;;;4.97;;
10711;SDS011;5407;51.234;6.804;2024-03-23T01:30:01;16.90;;;5.07;;
10711;SDS011;5407;51.234;6.804;2024-03-23T01:32:39;15.00;;;5.10;;
10711;SDS011;5407;51.234;6.804;2024-03-23T01:35:13;15.40;;;4.73;;
10711;SDS011;5407;51.234;6.804;2024-03-23T01:37:58;13.87;;;4.40;;
10711;SDS011;5407;51.234;6.804;2024-03-23T01:40:38;13.73;;;4.00;;
10711;SDS011;5407;51.234;6.804;2024-03-23T01:43:16;10.87;;;3.73;;
10711;SDS011;5407;51.234;6.804;2024-03-23T01:45:57;8.37;;;3.37;;
10711;SDS011;5407;51.234;6.804;2024-03-23T01:48:38;10.80;;;3.40;;
10711;SDS011;5407;51.234;6.804;2024-03-23T01:51:26;8.93;;;3.77;;
10711;SDS011;5407;51.234;6.804;2024-03-23T01:53:59;12.60;;;3.90;;
10711;SDS011;5407;51.234;6.804;2024-03-23T01:56:32;14.37;;;3.77;;
10711;SDS011;5407;51.234;6.804;2024-03-23T01:59:12;9.83;;;3.77;;
10711;SDS011;5407;51.234;6.804;2024-03-23T02:04:53;10.23;;;3.57;;
10711;SDS011;5407;51.234;6.804;2024-03-23T02:07:55;10.70;;;3.77;;
10711;SDS011;5407;51.234;6.804;2024-03-23T02:14:34;11.37;;;3.73;;
10711;SDS011;5407;51.234;6.804;2024-03-23T02:24:19;11.90;;;3.83;;
10711;SDS011;5407;51.234;6.804;2024-03-23T02:27:05;9.83;;;3.60;;
10711;SDS011;5407;51.234;6.804;2024-03-23T02:30:19;8.80;;;3.57;;
10711;SDS011;5407;51.234;6.804;2024-03-23T02:32:51;10.53;;;3.53;;
10711;SDS011;5407;51.234;6.804;2024-03-23T02:35:24;8.77;;;3.13;;
10711;SDS011;5407;51.234;6.804;2024-03-23T02:37:52;11.67;;;3.33;;
10711;SDS011;5407;51.234;6.804;2024-03-23T02:40:23;10.10;;;3.33;;
10711;SDS011;5407;51.234;6.804;2024-03-23T02:42:58;14.10;;;3.33;;
10711;SDS011;5407;51.234;6.804;2024-03-23T02:45:29;8.73;;;2.90;;
10711;SDS011;5407;51.234;6.804;2024-03-23T02:48:01;8.53;;;2.90;;
10711;SDS011;5407;51.234;6.804;2024-03-23T02:50:29;8.40;;;3.17;;
10711;SDS011;5407;51.234;6.804;2024-03-23T02:53:00;10.13;;;2.90;;
10711;SDS011;5407;51.234;6.804;2024-03-23T02:55:28;8.97;;;2.70;;
10711;SDS011;5407;51.234;6.804;2024-03-23T02:57:56;11.83;;;3.20;;
10711;SDS011;5407;51.234;6.804;2024-03-23T03:00:27;8.30;;;2.70;;
10711;SDS011;5407;51.234;6.804;2024-03-23T03:06:23;9.67;;;3.13;;
10711;SDS011;5407;51.234;6.804;2024-03-23T03:13:17;13.53;;;3.43;;
10711;SDS011;5407;51.234;6.804;2024-03-23T04:04:42;12.33;;;3.17;;
10711;SDS011;5407;51.234;6.804;2024-03-23T04:10:58;13.50;;;3.50;;
10711;SDS011;5407;51.234;6.804;2024-03-23T04:21:09;13.03;;;3.60;;
10711;SDS011;5407;51.234;6.804;2024-03-23T04:23:43;11.83;;;2.93;;
10711;SDS011;5407;51.234;6.804;2024-03-23T04:26:16;14.27;;;3.37;;
10711;SDS011;5407;51.234;6.804;2024-03-23T04:29:06;11.97;;;2.93;;
10711;SDS011;5407;51.234;6.804;2024-03-23T04:32:13;11.73;;;3.20;;
10711;SDS011;5407;51.234;6.804;2024-03-23T04:35:21;12.90;;;3.10;;
10711;SDS011;5407;51.234;6.804;2024-03-23T04:38:16;14.47;;;3.10;;
10711;SDS011;5407;51.234;6.804;2024-03-23T04:41:04;11.10;;;3.27;;
10711;SDS011;5407;51.234;6.804;2024-03-23T04:44:24;14.23;;;3.90;;
10711;SDS011;5407;51.234;6.804;2024-03-23T04:47:53;9.23;;;3.20;;
10711;SDS011;5407;51.234;6.804;2024-03-23T04:50:39;12.30;;;3.97;;
10711;SDS011;5407;51.234;6.804;2024-03-23T05:07:54;12.37;;;3.93;;
10711;SDS011;5407;51.234;6.804;2024-03-23T05:11:19;10.93;;;3.50;;
10711;SDS011;5407;51.234;6.804;2024-03-23T05:14:28;13.93;;;3.90;;
10711;SDS011;5407;51.234;6.804;2024-03-23T05:17:11;12.70;;;3.50;;
10711;SDS011;5407;51.234;6.804;2024-03-23T05:20:11;13.27;;;3.83;;
10711;SDS011;5407;51.234;6.804;2024-03-23T05:22:42;15.53;;;4.40;;
10711;SDS011;5407;51.234;6.804;2024-03-23T05:32:16;13.93;;;4.57;;
10711;SDS011;5407;51.234;6.804;2024-03-23T05:34:59;10.47;;;3.63;;
10711;SDS011;5407;51.234;6.804;2024-03-23T05:38:58;13.30;;;4.40;;
10711;SDS011;5407;51.234;6.804;2024-03-23T05:41:30;12.33;;;3.90;;
10711;SDS011;5407;51.234;6.804;2024-03-23T05:44:34;14.57;;;4.37;;
10711;SDS011;5407;51.234;6.804;2024-03-23T05:54:25;13.03;;;4.93;;
10711;SDS011;5407;51.234;6.804;2024-03-23T05:56:57;12.43;;;4.53;;
10711;SDS011;5407;51.234;6.804;2024-03-23T05:59:24;16.13;;;5.03;;
10711;SDS011;5407;51.234;6.804;2024-03-23T06:01:52;13.20;;;4.67;;
10711;SDS011;5407;51.234;6.804;2024-03-23T06:04:18;14.63;;;5.07;;
10711;SDS011;5407;51.234;6.804;2024-03-23T06:06:45;15.27;;;5.00;;
10711;SDS011;5407;51.234;6.804;2024-03-23T06:09:11;18.83;;;5.70;;
10711;SDS011;5407;51.234;6.804;2024-03-23T06:11:39;12.43;;;4.63;;
10711;SDS011;5407;51.234;6.804;2024-03-23T06:14:05;15.53;;;5.27;;
10711;SDS011;5407;51.234;6.804;2024-03-23T06:16:32;13.57;;;5.20;;
10711;SDS011;5407;51.234;6.804;2024-03-23T06:18:58;18.00;;;5.43;;
10711;SDS011;5407;51.234;6.804;2024-03-23T06:21:25;15.30;;;4.93;;
10711;SDS011;5407;51.234;6.804;2024-03-23T06:23:51;16.23;;;5.30;;
10711;SDS011;5407;51.234;6.804;2024-03-23T06:26:18;17.10;;;5.40;;
10711;SDS011;5407;51.234;6.804;2024-03-23T06:28:46;16.23;;;5.00;;
10711;SDS011;5407;51.234;6.804;2024-03-23T06:31:13;15.40;;;5.00;;
10711;SDS011;5407;51.234;6.804;2024-03-23T06:33:39;17.40;;;5.03;;
10711;SDS011;5407;51.234;6.804;2024-03-23T06:36:08;13.57;;;5.13;;
10711;SDS011;5407;51.234;6.804;2024-03-23T06:38:35;16.00;;;5.10;;
10711;SDS011;5407;51.234;6.804;2024-03-23T06:41:03;17.00;;;5.07;;
10711;SDS011;5407;51.234;6.804;2024-03-23T06:43:29;14.00;;;5.47;;
10711;SDS011;5407;51.234;6.804;2024-03-23T06:45:57;21.80;;;6.70;;
10711;SDS011;5407;51.234;6.804;2024-03-23T06:48:23;16.23;;;5.70;;
10711;SDS011;5407;51.234;6.804;2024-03-23T06:50:54;19.47;;;6.57;;
10711;SDS011;5407;51.234;6.804;2024-03-23T06:53:21;13.13;;;6.37;;
10711;SDS011;5407;51.234;6.804;2024-03-23T06:55:49;17.63;;;6.07;;
10711;SDS011;5407;51.234;6.804;2024-03-23T06:58:16;18.67;;;6.50;;
10711;SDS011;5407;51.234;6.804;2024-03-23T07:00:43;15.80;;;6.60;;
10711;SDS011;5407;51.234;6.804;2024-03-23T07:03:10;17.83;;;7.20;;
10711;SDS011;5407;51.234;6.804;2024-03-23T07:05:37;16.40;;;6.50;;
10711;SDS011;5407;51.234;6.804;2024-03-23T07:08:03;15.87;;;6.57;;
10711;SDS011;5407;51.234;6.804;2024-03-23T07:10:31;15.50;;;6.77;;
10711;SDS011;5407;51.234;6.804;2024-03-23T07:12:57;17.00;;;6.57;;
10711;SDS011;5407;51.234;6.804;2024-03-23T07:15:24;18.00;;;6.80;;
10711;SDS011;5407;51.234;6.804;2024-03-23T07:17:50;20.43;;;7.33;;
10711;SDS011;5407;51.234;6.804;2024-03-23T07:20:18;19.67;;;6.80;;
10711;SDS011;5407;51.234;6.804;2024-03-23T07:22:45;20.27;;;6.80;;
10711;SDS011;5407;51.234;6.804;2024-03-23T07:25:12;17.97;;;6.17;;
10711;SDS011;5407;51.234;6.804;2024-03-23T07:27:38;17.73;;;6.50;;
10711;SDS011;5407;51.234;6.804;2024-03-23T07:30:06;17.63;;;6.40;;
10711;SDS011;5407;51.234;6.804;2024-03-23T07:32:34;19.00;;;6.37;;
10711;SDS011;5407;51.234;6.804;2024-03-23T07:35:01;15.40;;;6.13;;
10711;SDS011;5407;51.234;6.804;2024-03-23T07:37:28;17.40;;;6.30;;
10711;SDS011;5407;51.234;6.804;2024-03-23T07:39:55;21.60;;;5.93;;
10711;SDS011;5407;51.234;6.804;2024-03-23T07:42:21;14.50;;;5.50;;
10711;SDS011;5407;51.234;6.804;2024-03-23T07:44:48;17.57;;;5.63;;
10711;SDS011;5407;51.234;6.804;2024-03-23T07:47:14;15.97;;;5.80;;
10711;SDS011;5407;51.234;6.804;2024-03-23T07:49:41;17.43;;;5.73;;
10711;SDS011;5407;51.234;6.804;2024-03-23T07:52:07;16.57;;;5.73;;
10711;SDS011;5407;51.234;6.804;2024-03-23T07:54:35;16.97;;;5.53;;
10711;SDS011;5407;51.234;6.804;2024-03-23T07:57:01;17.37;;;6.37;;
10711;SDS011;5407;51.234;6.804;2024-03-23T07:59:28;20.50;;;6.03;;
10711;SDS011;5407;51.234;6.804;2024-03-23T08:01:57;16.70;;;5.53;;
10711;SDS011;5407;51.234;6.804;2024-03-23T08:04:24;18.67;;;6.33;;
10711;SDS011;5407;51.234;6.804;2024-03-23T08:06:50;17.30;;;6.20;;
10711;SDS011;5407;51.234;6.804;2024-03-23T08:09:17;17.30;;;6.17;;
10711;SDS011;5407;51.234;6.804;2024-03-23T08:11:45;15.50;;;5.87;;
10711;SDS011;5407;51.234;6.804;2024-03-23T08:14:14;20.93;;;6.20;;
10711;SDS011;5407;51.234;6.804;2024-03-23T08:16:40;15.40;;;5.43;;
10711;SDS011;5407;51.234;6.804;2024-03-23T08:19:07;15.70;;;5.93;;
10711;SDS011;5407;51.234;6.804;2024-03-23T08:21:34;13.33;;;5.47;;
10711;SDS011;5407;51.234;6.804;2024-03-23T08:24:00;11.37;;;5.00;;
10711;SDS011;5407;51.234;6.804;2024-03-23T08:26:26;11.57;;;4.97;;
10711;SDS011;5407;51.234;6.804;2024-03-23T08:28:55;15.87;;;5.47;;
10711;SDS011;5407;51.234;6.804;2024-03-23T08:31:21;14.97;;;5.13;;
10711;SDS011;5407;51.234;6.804;2024-03-23T08:33:54;12.70;;;4.63;;
10711;SDS011;5407;51.234;6.804;2024-03-23T08:46:52;14.77;;;4.17;;
10711;SDS011;5407;51.234;6.804;2024-03-23T08:50:23;16.83;;;4.67;;
10711;SDS011;5407;51.234;6.804;2024-03-23T08:52:55;13.57;;;3.80;;
10711;SDS011;5407;51.234;6.804;2024-03-23T08:55:29;12.00;;;3.50;;
10711;SDS011;5407;51.234;6.804;2024-03-23T08:57:57;11.40;;;3.90;;
10711;SDS011;5407;51.234;6.804;2024-03-23T09:00:24;11.90;;;3.40;;
10711;SDS011;5407;51.234;6.804;2024-03-23T09:02:51;11.10;;;3.30;;
10711;SDS011;5407;51.234;6.804;2024-03-23T09:05:17;11.87;;;3.70;;
10711;SDS011;5407;51.234;6.804;2024-03-23T09:07:43;10.57;;;3.23;;
10711;SDS011;5407;51.234;6.804;2024-03-23T09:10:09;14.90;;;3.53;;
10711;SDS011;5407;51.234;6.804;2024-03-23T09:12:37;14.73;;;3.30;;
10711;SDS011;5407;51.234;6.804;2024-03-23T09:16:01;12.87;;;3.70;;
10711;SDS011;5407;51.234;6.804;2024-03-23T09:19:12;11.33;;;3.70;;
10711;SDS011;5407;51.234;6.804;2024-03-23T09:22:14;14.83;;;3.57;;
10711;SDS011;5407;51.234;6.804;2024-03-23T09:24:41;12.23;;;3.40;;
10711;SDS011;5407;51.234;6.804;2024-03-23T09:27:18;10.70;;;3.43;;
10711;SDS011;5407;51.234;6.804;2024-03-23T09:29:50;10.83;;;3.37;;
10711;SDS011;5407;51.234;6.804;2024-03-23T09:32:27;14.00;;;3.60;;
10711;SDS011;5407;51.234;6.804;2024-03-23T09:34:54;10.90;;;3.80;;
10711;SDS011;5407;51.234;6.804;2024-03-23T09:37:35;11.03;;;3.60;;
10711;SDS011;5407;51.234;6.804;2024-03-23T09:40:01;10.43;;;3.87;;
10711;SDS011;5407;51.234;6.804;2024-03-23T09:42:30;10.50;;;4.40;;
10711;SDS011;5407;51.234;6.804;2024-03-23T09:44:57;13.53;;;4.27;;
10711;SDS011;5407;51.234;6.804;2024-03-23T09:47:27;10.10;;;3.67;;
10711;SDS011;5407;51.234;6.804;2024-03-23T09:50:09;12.23;;;4.70;;
10711;SDS011;5407;51.234;6.804;2024-03-23T09:52:54;10.27;;;3.73;;
10711;SDS011;5407;51.234;6.804;2024-03-23T09:55:26;11.40;;;3.63;;
10711;SDS011;5407;51.234;6.804;2024-03-23T10:01:38;15.70;;;3.87;;
10711;SDS011;5407;51.234;6.804;2024-03-23T10:10:12;11.30;;;3.43;;
10711;SDS011;5407;51.234;6.804;2024-03-23T10:12:55;9.07;;;3.10;;
10711;SDS011;5407;51.234;6.804;2024-03-23T10:21:52;9.23;;;3.20;;
10711;SDS011;5407;51.234;6.804;2024-03-23T10:24:28;8.27;;;2.80;;
10711;SDS011;5407;51.234;6.804;2024-03-23T10:36:51;5.47;;;2.10;;
10711;SDS011;5407;51.234;6.804;2024-03-23T10:39:23;3.80;;;1.80;;
10711;SDS011;5407;51.234;6.804;2024-03-23T10:41:52;5.93;;;2.07;;
10711;SDS011;5407;51.234;6.804;2024-03-23T10:44:24;6.50;;;1.80;;
10711;SDS011;5407;51.234;6.804;2024-03-23T10:49:49;5.63;;;2.07;;
10711;SDS011;5407;51.234;6.804;2024-03-23T10:52:16;5.53;;;1.90;;
10711;SDS011;5407;51.234;6.804;2024-03-23T10:54:41;6.70;;;1.80;;
10711;SDS011;5407;51.234;6.804;2024-03-23T10:57:16;3.07;;;1.43;;
10711;SDS011;5407;51.234;6.804;2024-03-23T10:59:45;4.53;;;1.60;;
10711;SDS011;5407;51.234;6.804;2024-03-23T11:02:18;3.90;;;1.80;;
10711;SDS011;5407;51.234;6.804;2024-03-23T11:04:45;3.57;;;1.50;;
10711;SDS011;5407;51.234;6.804;2024-03-23T11:07:28;2.23;;;1.10;;
10711;SDS011;5407;51.234;6.804;2024-03-23T11:09:55;5.37;;;1.50;;
10711;SDS011;5407;51.234;6.804;2024-03-23T11:12:30;3.57;;;1.50;;
10711;SDS011;5407;51.234;6.804;2024-03-23T11:15:00;2.50;;;1.40;;
10711;SDS011;5407;51.234;6.804;2024-03-23T11:17:30;1.87;;;1.40;;
10711;SDS011;5407;51.234;6.804;2024-03-23T11:23:01;5.03;;;1.30;;
10711;SDS011;5407;51.234;6.804;2024-03-23T11:25:30;4.07;;;1.50;;
10711;SDS011;5407;51.234;6.804;2024-03-23T11:31:12;2.80;;;1.30;;
10711;SDS011;5407;51.234;6.804;2024-03-23T11:33:42;4.43;;;1.70;;
10711;SDS011;5407;51.234;6.804;2024-03-23T11:41:37;4.68;;;1.50;;
10711;SDS011;5407;51.234;6.804;2024-03-23T11:44:18;4.30;;;1.60;;
10711;SDS011;5407;51.234;6.804;2024-03-23T11:46:45;2.40;;;1.40;;
10711;SDS011;5407;51.234;6.804;2024-03-23T11:49:21;4.85;;;1.60;;
10711;SDS011;5407;51.234;6.804;2024-03-23T11:51:48;2.83;;;1.50;;
10711;SDS011;5407;51.234;6.804;2024-03-23T11:54:15;4.25;;;2.58;;
10711;SDS011;5407;51.234;6.804;2024-03-23T11:56:53;5.20;;;2.60;;
10711;SDS011;5407;51.234;6.804;2024-03-23T11:59:32;6.53;;;3.00;;
10711;SDS011;5407;51.234;6.804;2024-03-23T12:01:59;2.25;;;1.02;;
10711;SDS011;5407;51.234;6.804;2024-03-23T12:04:26;2.20;;;1.00;;
10711;SDS011;5407;51.234;6.804;2024-03-23T12:09:44;1.63;;;0.97;;
10711;SDS011;5407;51.234;6.804;2024-03-23T12:12:13;2.43;;;1.30;;
10711;SDS011;5407;51.234;6.804;2024-03-23T12:15:01;2.10;;;1.00;;
10711;SDS011;5407;51.234;6.804;2024-03-23T12:17:55;1.67;;;0.90;;
10711;SDS011;5407;51.234;6.804;2024-03-23T12:21:29;2.97;;;1.80;;
10711;SDS011;5407;51.234;6.804;2024-03-23T12:24:01;4.37;;;1.60;;
10711;SDS011;5407;51.234;6.804;2024-03-23T12:26:27;5.07;;;1.50;;
10711;SDS011;5407;51.234;6.804;2024-03-23T12:28:54;5.00;;;1.70;;
10711;SDS011;5407;51.234;6.804;2024-03-23T12:31:22;5.17;;;2.73;;
10711;SDS011;5407;51.234;6.804;2024-03-23T12:33:53;4.67;;;1.90;;
10711;SDS011;5407;51.234;6.804;2024-03-23T12:39:26;3.80;;;1.77;;
10711;SDS011;5407;51.234;6.804;2024-03-23T12:44:53;4.27;;;1.67;;
10711;SDS011;5407;51.234;6.804;2024-03-23T12:48:07;2.70;;;1.37;;
10711;SDS011;5407;51.234;6.804;2024-03-23T12:51:07;3.70;;;1.60;;
10711;SDS011;5407;51.234;6.804;2024-03-23T12:53:36;4.07;;;1.50;;
10711;SDS011;5407;51.234;6.804;2024-03-23T12:56:14;3.80;;;1.60;;
10711;SDS011;5407;51.234;6.804;2024-03-23T12:59:17;3.67;;;1.63;;
10711;SDS011;5407;51.234;6.804;2024-03-23T13:02:38;4.50;;;1.43;;
10711;SDS011;5407;51.234;6.804;2024-03-23T13:05:07;3.10;;;1.40;;
10711;SDS011;5407;51.234;6.804;2024-03-23T13:07:35;3.53;;;1.33;;
10711;SDS011;5407;51.234;6.804;2024-03-23T13:10:05;3.80;;;1.30;;
10711;SDS011;5407;51.234;6.804;2024-03-23T13:12:48;5.40;;;1.53;;
10711;SDS011;5407;51.234;6.804;2024-03-23T13:15:15;3.67;;;1.47;;
10711;SDS011;5407;51.234;6.804;2024-03-23T13:17:43;2.47;;;1.10;;
10711;SDS011;5407;51.234;6.804;2024-03-23T13:20:12;2.83;;;1.00;;
10711;SDS011;5407;51.234;6.804;2024-03-23T13:22:43;2.13;;;0.90;;
10711;SDS011;5407;51.234;6.804;2024-03-23T13:25:11;1.40;;;0.90;;
10711;SDS011;5407;51.234;6.804;2024-03-23T13:27:41;4.40;;;1.40;;
10711;SDS011;5407;51.234;6.804;2024-03-23T13:30:10;2.73;;;1.17;;
10711;SDS011;5407;51.234;6.804;2024-03-23T13:32:48;4.73;;;1.53;;
10711;SDS011;5407;51.234;6.804;2024-03-23T13:35:25;3.40;;;1.30;;
10711;SDS011;5407;51.234;6.804;2024-03-23T13:37:51;3.87;;;1.53;;
10711;SDS011;5407;51.234;6.804;2024-03-23T13:40:20;2.30;;;1.23;;
10711;SDS011;5407;51.234;6.804;2024-03-23T13:42:46;3.00;;;1.30;;
10711;SDS011;5407;51.234;6.804;2024-03-23T13:45:13;4.40;;;1.30;;
10711;SDS011;5407;51.234;6.804;2024-03-23T13:47:39;6.33;;;1.93;;
10711;SDS011;5407;51.234;6.804;2024-03-23T13:50:07;6.13;;;2.93;;
10711;SDS011;5407;51.234;6.804;2024-03-23T13:52:34;6.93;;;2.53;;
10711;SDS011;5407;51.234;6.804;2024-03-23T13:55:01;6.73;;;4.00;;
10711;SDS011;5407;51.234;6.804;2024-03-23T13:57:27;9.97;;;4.63;;
10711;SDS011;5407;51.234;6.804;2024-03-23T13:59:54;4.87;;;1.80;;
10711;SDS011;5407;51.234;6.804;2024-03-23T14:02:20;4.07;;;1.77;;
10711;SDS011;5407;51.234;6.804;2024-03-23T14:04:47;4.93;;;1.70;;
10711;SDS011;5407;51.234;6.804;2024-03-23T14:07:13;5.27;;;1.90;;
10711;SDS011;5407;51.234;6.804;2024-03-23T14:09:44;3.60;;;1.70;;
10711;SDS011;5407;51.234;6.804;2024-03-23T14:12:10;4.20;;;1.80;;
10711;SDS011;5407;51.234;6.804;2024-03-23T14:14:37;5.70;;;1.83;;
10711;SDS011;5407;51.234;6.804;2024-03-23T14:17:04;4.97;;;1.80;;
10711;SDS011;5407;51.234;6.804;2024-03-23T14:19:31;5.37;;;2.00;;
10711;SDS011;5407;51.234;6.804;2024-03-23T14:21:57;7.07;;;2.13;;
10711;SDS011;5407;51.234;6.804;2024-03-23T14:24:26;3.70;;;1.73;;
10711;SDS011;5407;51.234;6.804;2024-03-23T14:26:53;2.97;;;1.50;;
10711;SDS011;5407;51.234;6.804;2024-03-23T14:29:20;3.83;;;1.80;;
10711;SDS011;5407;51.234;6.804;2024-03-23T14:31:46;4.60;;;1.70;;
10711;SDS011;5407;51.234;6.804;2024-03-23T14:34:14;4.57;;;1.60;;
10711;SDS011;5407;51.234;6.804;2024-03-23T14:36:40;2.37;;;1.40;;
10711;SDS011;5407;51.234;6.804;2024-03-23T14:39:07;2.30;;;1.40;;
10711;SDS011;5407;51.234;6.804;2024-03-23T14:41:33;2.87;;;1.80;;
10711;SDS011;5407;51.234;6.804;2024-03-23T14:44:01;3.40;;;1.43;;
10711;SDS011;5407;51.234;6.804;2024-03-23T14:46:27;3.37;;;1.40;;
10711;SDS011;5407;51.234;6.804;2024-03-23T14:48:54;5.13;;;1.10;;
10711;SDS011;5407;51.234;6.804;2024-03-23T14:51:20;4.13;;;1.10;;
10711;SDS011;5407;51.234;6.804;2024-03-23T14:53:51;3.00;;;1.47;;
10711;SDS011;5407;51.234;6.804;2024-03-23T14:56:29;3.30;;;1.40;;
10711;SDS011;5407;51.234;6.804;2024-03-23T15:02:11;3.07;;;1.20;;
10711;SDS011;5407;51.234;6.804;2024-03-23T15:04:40;2.43;;;1.50;;
10711;SDS011;5407;51.234;6.804;2024-03-23T15:07:16;3.53;;;1.43;;
10711;SDS011;5407;51.234;6.804;2024-03-23T15:09:51;3.00;;;1.53;;
10711;SDS011;5407;51.234;6.804;2024-03-23T15:12:23;3.50;;;1.63;;
10711;SDS011;5407;51.234;6.804;2024-03-23T15:15:04;4.57;;;1.60;;
10711;SDS011;5407;51.234;6.804;2024-03-23T15:17:45;3.63;;;1.80;;
10711;SDS011;5407;51.234;6.804;2024-03-23T15:20:31;4.73;;;1.80;;
10711;SDS011;5407;51.234;6.804;2024-03-23T15:23:05;2.63;;;1.57;;
10711;SDS011;5407;51.234;6.804;2024-03-23T15:25:53;3.03;;;1.60;;
10711;SDS011;5407;51.234;6.804;2024-03-23T15:28:43;3.57;;;1.57;;
10711;SDS011;5407;51.234;6.804;2024-03-23T15:31:36;4.87;;;2.03;;
10711;SDS011;5407;51.234;6.804;2024-03-23T15:34:10;1.83;;;1.37;;
10711;SDS011;5407;51.234;6.804;2024-03-23T15:36:49;4.27;;;1.60;;
10711;SDS011;5407;51.234;6.804;2024-03-23T15:39:21;3.33;;;1.60;;
10711;SDS011;5407;51.234;6.804;2024-03-23T15:41:50;6.73;;;1.90;;
10711;SDS011;5407;51.234;6.804;2024-03-23T15:44:20;4.33;;;1.57;;
10711;SDS011;5407;51.234;6.804;2024-03-23T15:46:51;3.87;;;1.73;;
10711;SDS011;5407;51.234;6.804;2024-03-23T15:49:20;6.33;;;2.70;;
10711;SDS011;5407;51.234;6.804;2024-03-23T15:51:51;4.80;;;2.50;;
10711;SDS011;5407;51.234;6.804;2024-03-23T15:54:25;6.27;;;2.90;;
10711;SDS011;5407;51.234;6.804;2024-03-23T15:57:07;4.67;;;1.70;;
10711;SDS011;5407;51.234;6.804;2024-03-23T15:59:54;3.90;;;1.60;;
10711;SDS011;5407;51.234;6.804;2024-03-23T16:02:54;3.27;;;1.70;;
10711;SDS011;5407;51.234;6.804;2024-03-23T16:06:00;4.23;;;1.80;;
10711;SDS011;5407;51.234;6.804;2024-03-23T16:08:41;4.33;;;1.57;;
10711;SDS011;5407;51.234;6.804;2024-03-23T16:11:14;3.77;;;1.50;;
10711;SDS011;5407;51.234;6.804;2024-03-23T16:13:46;3.93;;;1.60;;
10711;SDS011;5407;51.234;6.804;2024-03-23T16:16:31;3.03;;;1.80;;
10711;SDS011;5407;51.234;6.804;2024-03-23T16:35:42;3.90;;;1.37;;
10711;SDS011;5407;51.234;6.804;2024-03-23T16:38:18;3.33;;;1.40;;
10711;SDS011;5407;51.234;6.804;2024-03-23T16:41:08;2.37;;;1.20;;
10711;SDS011;5407;51.234;6.804;2024-03-23T16:50:49;2.10;;;1.50;;
10711;SDS011;5407;51.234;6.804;2024-03-23T16:53:55;4.10;;;1.67;;
10711;SDS011;5407;51.234;6.804;2024-03-23T16:56:56;3.53;;;1.50;;
10711;SDS011;5407;51.234;6.804;2024-03-23T16:59:23;2.57;;;2.10;;
10711;SDS011;5407;51.234;6.804;2024-03-23T17:01:49;4.10;;;1.50;;
10711;SDS011;5407;51.234;6.804;2024-03-23T17:04:16;2.60;;;1.37;;
10711;SDS011;5407;51.234;6.804;2024-03-23T17:06:43;3.97;;;1.50;;
10711;SDS011;5407;51.234;6.804;2024-03-23T17:09:10;3.70;;;2.07;;
10711;SDS011;5407;51.234;6.804;2024-03-23T17:11:37;3.53;;;2.27;;
10711;SDS011;5407;51.234;6.804;2024-03-23T17:14:04;12.53;;;6.60;;
10711;SDS011;5407;51.234;6.804;2024-03-23T17:16:30;2.83;;;1.50;;
10711;SDS011;5407;51.234;6.804;2024-03-23T17:18:56;3.93;;;2.33;;
10711;SDS011;5407;51.234;6.804;2024-03-23T17:21:22;5.30;;;2.80;;
10711;SDS011;5407;51.234;6.804;2024-03-23T17:23:51;4.93;;;2.10;;
10711;SDS011;5407;51.234;6.804;2024-03-23T17:26:19;4.70;;;1.90;;
10711;SDS011;5407;51.234;6.804;2024-03-23T17:28:46;6.23;;;3.20;;
10711;SDS011;5407;51.234;6.804;2024-03-23T17:31:14;6.27;;;2.17;;
10711;SDS011;5407;51.234;6.804;2024-03-23T17:33:42;6.63;;;2.70;;
10711;SDS011;5407;51.234;6.804;2024-03-23T17:36:11;3.63;;;1.80;;
10711;SDS011;5407;51.234;6.804;2024-03-23T17:38:37;3.10;;;1.30;;
10711;SDS011;5407;51.234;6.804;2024-03-23T17:41:05;3.20;;;1.60;;
10711;SDS011;5407;51.234;6.804;2024-03-23T17:43:32;3.17;;;1.50;;
10711;SDS011;5407;51.234;6.804;2024-03-23T17:45:59;2.47;;;1.50;;
10711;SDS011;5407;51.234;6.804;2024-03-23T17:48:25;2.13;;;1.40;;
10711;SDS011;5407;51.234;6.804;2024-03-23T17:51:00;2.53;;;1.30;;
10711;SDS011;5407;51.234;6.804;2024-03-23T17:53:26;2.87;;;1.40;;
10711;SDS011;5407;51.234;6.804;2024-03-23T17:55:53;2.73;;;1.53;;
10711;SDS011;5407;51.234;6.804;2024-03-23T17:58:20;3.13;;;1.50;;
10711;SDS011;5407;51.234;6.804;2024-03-23T18:00:47;4.10;;;1.40;;
10711;SDS011;5407;51.234;6.804;2024-03-23T18:03:13;4.07;;;2.00;;
10711;SDS011;5407;51.234;6.804;2024-03-23T18:05:40;2.47;;;1.40;;
10711;SDS011;5407;51.234;6.804;2024-03-23T18:08:06;3.77;;;1.97;;
10711;SDS011;5407;51.234;6.804;2024-03-23T18:10:34;4.33;;;2.03;;
10711;SDS011;5407;51.234;6.804;2024-03-23T18:13:00;6.07;;;2.10;;
10711;SDS011;5407;51.234;6.804;2024-03-23T18:15:28;5.93;;;1.90;;
10711;SDS011;5407;51.234;6.804;2024-03-23T18:17:54;4.50;;;2.20;;
10711;SDS011;5407;51.234;6.804;2024-03-23T18:20:21;3.23;;;1.80;;
10711;SDS011;5407;51.234;6.804;2024-03-23T18:22:47;4.43;;;2.00;;
10711;SDS011;5407;51.234;6.804;2024-03-23T18:25:14;6.60;;;2.70;;
10711;SDS011;5407;51.234;6.804;2024-03-23T18:27:40;10.23;;;5.53;;
10711;SDS011;5407;51.234;6.804;2024-03-23T18:30:07;9.53;;;6.50;;
10711;SDS011;5407;51.234;6.804;2024-03-23T18:32:34;4.47;;;2.30;;
10711;SDS011;5407;51.234;6.804;2024-03-23T18:35:01;4.23;;;3.03;;
10711;SDS011;5407;51.234;6.804;2024-03-23T18:37:28;4.67;;;2.30;;
10711;SDS011;5407;51.234;6.804;2024-03-23T18:39:55;10.87;;;6.87;;
10711;SDS011;5407;51.234;6.804;2024-03-23T18:42:21;5.40;;;2.30;;
10711;SDS011;5407;51.234;6.804;2024-03-23T18:44:48;5.50;;;2.20;;
10711;SDS011;5407;51.234;6.804;2024-03-23T18:47:14;4.17;;;2.70;;
10711;SDS011;5407;51.234;6.804;2024-03-23T18:49:42;3.83;;;2.30;;
10711;SDS011;5407;51.234;6.804;2024-03-23T18:52:09;5.00;;;2.57;;
10711;SDS011;5407;51.234;6.804;2024-03-23T18:54:35;5.40;;;2.30;;
10711;SDS011;5407;51.234;6.804;2024-03-23T18:57:01;8.77;;;4.43;;
10711;SDS011;5407;51.234;6.804;2024-03-23T18:59:29;7.80;;;4.50;;
10711;SDS011;5407;51.234;6.804;2024-03-23T19:01:55;5.47;;;3.83;;
10711;SDS011;5407;51.234;6.804;2024-03-23T19:04:22;6.30;;;3.30;;
10711;SDS011;5407;51.234;6.804;2024-03-23T19:06:50;4.17;;;2.53;;
10711;SDS011;5407;51.234;6.804;2024-03-23T19:09:17;5.23;;;2.40;;
10711;SDS011;5407;51.234;6.804;2024-03-23T19:11:42;5.80;;;3.00;;
10711;SDS011;5407;51.234;6.804;2024-03-23T19:14:09;5.60;;;3.40;;
10711;SDS011;5407;51.234;6.804;2024-03-23T19:16:35;14.90;;;9.47;;
10711;SDS011;5407;51.234;6.804;2024-03-23T19:19:02;24.93;;;16.63;;
10711;SDS011;5407;51.234;6.804;2024-03-23T19:21:28;7.00;;;2.80;;
10711;SDS011;5407;51.234;6.804;2024-03-23T19:23:56;7.77;;;3.80;;
10711;SDS011;5407;51.234;6.804;2024-03-23T19:26:24;6.10;;;3.57;;
10711;SDS011;5407;51.234;6.804;2024-03-23T19:28:50;5.93;;;3.47;;
10711;SDS011;5407;51.234;6.804;2024-03-23T19:31:16;6.60;;;3.47;;
10711;SDS011;5407;51.234;6.804;2024-03-23T19:33:43;7.17;;;4.50;;
10711;SDS011;5407;51.234;6.804;2024-03-23T19:36:10;6.63;;;3.30;;
10711;SDS011;5407;51.234;6.804;2024-03-23T19:38:37;4.67;;;3.50;;
10711;SDS011;5407;51.234;6.804;2024-03-23T19:41:05;4.40;;;2.43;;
10711;SDS011;5407;51.234;6.804;2024-03-23T19:43:32;6.30;;;2.70;;
10711;SDS011;5407;51.234;6.804;2024-03-23T19:46:01;6.67;;;2.53;;
10711;SDS011;5407;51.234;6.804;2024-03-23T19:48:28;4.57;;;2.40;;
10711;SDS011;5407;51.234;6.804;2024-03-23T19:50:54;6.33;;;2.57;;
10711;SDS011;5407;51.234;6.804;2024-03-23T19:53:21;5.27;;;2.50;;
10711;SDS011;5407;51.234;6.804;2024-03-23T19:55:52;4.67;;;2.77;;
10711;SDS011;5407;51.234;6.804;2024-03-23T19:58:21;5.17;;;3.20;;
10711;SDS011;5407;51.234;6.804;2024-03-23T20:00:47;3.63;;;2.80;;